Time;durP1;ratioP1;P1;durP2;ratioP2;P2;SDS_P1;SDS_P2;PMS_P1;PMS_P2;Temp;Humidity;BMP_temperature;BMP_pressure;BME280_temperature;BME280_humidity;BME280_pressure;Samples;Min_cycle;Max_cycle;Signal;HPM_P1;HPM_P2
2021/12/25 00:01:21;;;;;;;1.00;0.90;;;;;;;-1.43;77.47;100111.28;5070586;28;20205;-82
2021/12/25 00:03:49;;;;;;;1.07;0.50;;;;;;;-1.44;77.62;100116.59;5073614;28;20193;-81
2021/12/25 00:06:16;;;;;;;1.43;0.60;;;;;;;-1.45;77.47;100120.94;5070654;28;20225;-83
2021/12/25 00:08:43;;;;;;;1.17;0.60;;;;;;;-1.47;77.76;100125.34;5074739;28;20228;-82
2021/12/25 00:11:10;;;;;;;1.73;0.70;;;;;;;-1.48;77.85;100126.25;5073269;28;20217;-83
2021/12/25 00:13:37;;;;;;;2.83;0.60;;;;;;;-1.49;77.51;100134.09;5073436;28;20603;-82
2021/12/25 00:16:04;;;;;;;0.87;0.67;;;;;;;-1.47;77.91;100137.53;5075652;28;20207;-82
2021/12/25 00:18:33;;;;;;;2.23;0.70;;;;;;;-1.48;77.76;100141.91;5068195;28;20268;-84
2021/12/25 00:20:59;;;;;;;1.93;0.70;;;;;;;-1.49;77.70;100136.72;5072175;28;20221;-83
2021/12/25 00:23:26;;;;;;;1.20;0.70;;;;;;;-1.48;77.63;100136.69;5075239;28;20201;-82
2021/12/25 00:25:58;;;;;;;2.00;0.80;;;;;;;-1.49;78.25;100140.19;5074219;28;20222;-83
2021/12/25 00:28:46;;;;;;;1.63;0.70;;;;;;;-1.49;78.22;100142.81;5077720;28;20638;-83
2021/12/25 00:31:26;;;;;;;2.30;1.20;;;;;;;-1.48;78.23;100152.34;5064340;28;20717;-83
2021/12/25 00:33:57;;;;;;;1.37;0.93;;;;;;;-1.50;78.24;100156.75;5068280;28;20219;-83
2021/12/25 00:36:24;;;;;;;1.13;0.90;;;;;;;-1.49;78.56;100155.84;5080361;28;20197;-82
2021/12/25 00:38:52;;;;;;;1.70;0.93;;;;;;;-1.49;78.61;100163.69;5068462;28;20208;-84
2021/12/25 00:41:22;;;;;;;2.07;1.20;;;;;;;-1.47;78.91;100171.50;5077501;28;20582;-84
2021/12/25 00:43:49;;;;;;;0.83;0.80;;;;;;;-1.45;78.86;100172.31;5074950;28;20676;-83
2021/12/25 00:46:16;;;;;;;3.57;1.30;;;;;;;-1.45;78.92;100167.09;5067182;28;20233;-83
2021/12/25 00:48:43;;;;;;;1.43;0.83;;;;;;;-1.45;78.95;100167.09;5067305;28;20625;-83
2021/12/25 00:51:11;;;;;;;1.87;1.10;;;;;;;-1.46;79.08;100171.47;5077363;28;20205;-82
2021/12/25 00:53:38;;;;;;;7.53;1.90;;;;;;;-1.47;78.97;100182.81;5076432;28;20214;-84
2021/12/25 00:56:05;;;;;;;1.63;0.60;;;;;;;-1.49;79.19;100189.81;5062194;28;20205;-81
2021/12/25 00:58:31;;;;;;;2.17;0.60;;;;;;;-1.49;78.98;100181.13;5067245;28;20210;-82
2021/12/25 01:00:58;;;;;;;1.17;0.50;;;;;;;-1.52;78.91;100191.63;5071031;28;20229;-82
2021/12/25 01:03:25;;;;;;;1.90;0.60;;;;;;;-1.55;78.34;100189.06;5058313;28;20210;-81
2021/12/25 01:05:51;;;;;;;0.93;0.83;;;;;;;-1.59;77.98;100193.50;5058083;28;20232;-82
2021/12/25 01:08:19;;;;;;;1.30;0.60;;;;;;;-1.61;78.27;100199.66;5077699;28;20201;-82
2021/12/25 01:10:46;;;;;;;1.43;0.40;;;;;;;-1.63;77.97;100199.69;5076802;28;20225;-82
2021/12/25 01:13:17;;;;;;;1.70;0.40;;;;;;;-1.64;77.70;100203.19;5076159;28;20215;-82
2021/12/25 01:15:57;;;;;;;1.70;0.80;;;;;;;-1.66;77.45;100204.13;5073756;22;20301;-70
2021/12/25 01:18:56;;;;;;;0.93;0.60;;;;;;;-1.71;77.04;100214.66;5019445;28;20475;-73
2021/12/25 01:21:45;;;;;;;0.83;0.50;;;;;;;-1.75;77.05;100210.38;5011362;28;20214;-69
2021/12/25 01:24:32;;;;;;;0.30;0.30;;;;;;;-1.81;76.25;100215.72;5024051;28;20296;-73
2021/12/25 01:32:53;;;;;;;0.60;0.30;;;;;;;-1.96;75.33;100211.66;5009940;28;20223;-71
2021/12/25 01:35:39;;;;;;;0.67;0.47;;;;;;;-1.99;74.83;100219.56;5011142;28;20272;-71
2021/12/25 01:38:21;;;;;;;0.73;0.33;;;;;;;-1.99;75.51;100226.53;5004805;28;20209;-71
2021/12/25 01:40:58;;;;;;;0.63;0.20;;;;;;;-1.98;75.24;100229.13;5015793;28;20222;-71
2021/12/25 01:48:53;;;;;;;0.47;0.20;;;;;;;-1.97;75.25;100256.06;5007277;28;20261;-71
2021/12/25 01:51:20;;;;;;;1.67;0.70;;;;;;;-1.98;75.39;100259.56;5008477;28;20241;-71
2021/12/25 01:53:47;;;;;;;0.83;0.47;;;;;;;-1.99;74.67;100248.25;5005533;28;20286;-71
2021/12/25 01:56:15;;;;;;;2.07;0.67;;;;;;;-2.00;75.04;100241.31;5005965;28;20206;-70
2021/12/25 01:58:42;;;;;;;0.63;0.30;;;;;;;-2.00;74.62;100250.91;5006268;28;20278;-71
2021/12/25 02:01:10;;;;;;;0.37;0.30;;;;;;;-2.02;74.96;100248.31;5005074;28;20237;-70
2021/12/25 02:03:37;;;;;;;1.43;0.30;;;;;;;-2.04;74.42;100254.44;5004144;28;20214;-70
2021/12/25 02:06:04;;;;;;;0.50;0.30;;;;;;;-2.07;74.93;100247.53;5005175;28;20219;-70
2021/12/25 02:08:31;;;;;;;1.30;0.30;;;;;;;-2.09;74.54;100246.69;5004817;28;20560;-70
2021/12/25 02:10:58;;;;;;;0.93;0.30;;;;;;;-2.11;74.23;100253.69;5006479;28;20230;-71
2021/12/25 02:13:26;;;;;;;0.40;0.33;;;;;;;-2.12;74.55;100250.22;5006429;28;20207;-71
2021/12/25 02:15:55;;;;;;;1.50;0.40;;;;;;;-2.11;74.61;100251.09;5008103;28;20203;-71
2021/12/25 02:18:27;;;;;;;0.53;0.20;;;;;;;-2.09;74.31;100254.53;5008440;28;20694;-70
2021/12/25 02:21:02;;;;;;;1.27;0.20;;;;;;;-2.10;74.84;100264.09;5003534;28;20241;-71
2021/12/25 02:23:32;;;;;;;0.90;0.27;;;;;;;-2.13;74.52;100255.47;5002322;28;20202;-70
2021/12/25 02:25:59;;;;;;;0.23;0.10;;;;;;;-2.18;73.85;100263.41;5008076;28;20226;-70
2021/12/25 02:28:27;;;;;;;1.10;0.20;;;;;;;-2.25;73.32;100258.28;5007851;28;20205;-70
2021/12/25 02:30:56;;;;;;;0.90;0.30;;;;;;;-2.31;72.87;100255.78;5002584;28;20239;-71
2021/12/25 02:33:25;;;;;;;1.07;0.27;;;;;;;-2.37;72.38;100258.53;5008348;28;20211;-70
2021/12/25 02:35:52;;;;;;;0.57;0.30;;;;;;;-2.41;72.22;100259.44;5004733;28;20261;-69
2021/12/25 02:38:20;;;;;;;0.97;0.20;;;;;;;-2.47;72.24;100265.63;5004668;28;20229;-71
2021/12/25 02:40:46;;;;;;;0.93;0.67;;;;;;;-2.49;71.85;100260.44;5008067;28;20233;-70
2021/12/25 02:43:13;;;;;;;1.10;0.10;;;;;;;-2.51;71.41;100264.81;5006325;28;20207;-70
2021/12/25 02:45:40;;;;;;;1.03;0.20;;;;;;;-2.51;71.34;100263.97;5008926;28;20277;-70
2021/12/25 02:48:08;;;;;;;1.80;0.30;;;;;;;-2.53;71.14;100261.38;5008754;28;20695;-70
2021/12/25 02:50:36;;;;;;;0.40;0.20;;;;;;;-2.57;70.78;100259.72;5004519;28;20230;-70
2021/12/25 02:53:06;;;;;;;1.17;0.40;;;;;;;-2.61;70.42;100270.19;5005692;28;20219;-70
2021/12/25 02:55:35;;;;;;;0.20;0.20;;;;;;;-2.64;70.29;100268.50;5005270;28;20198;-70
2021/12/25 02:58:02;;;;;;;2.10;0.40;;;;;;;-2.65;70.16;100258.09;5000647;28;20203;-70
2021/12/25 03:00:30;;;;;;;2.10;0.30;;;;;;;-2.66;70.32;100262.44;5007169;28;20743;-70
2021/12/25 03:03:00;;;;;;;0.20;0.20;;;;;;;-2.68;70.00;100274.63;5002782;28;20680;-70
2021/12/25 03:05:27;;;;;;;1.07;0.47;;;;;;;-2.71;69.73;100272.09;4999940;28;20294;-70
2021/12/25 03:07:53;;;;;;;0.47;0.23;;;;;;;-2.72;69.81;100272.13;5000618;28;20214;-69
2021/12/25 03:10:20;;;;;;;0.50;0.20;;;;;;;-2.73;70.02;100278.22;5007078;28;20237;-70
2021/12/25 03:12:52;;;;;;;0.30;0.10;;;;;;;-2.74;69.72;100281.72;5006069;28;20286;-70
2021/12/25 03:15:28;;;;;;;1.43;0.17;;;;;;;-2.77;70.04;100281.75;5009315;28;20210;-69
2021/12/25 03:17:55;;;;;;;2.10;0.30;;;;;;;-2.77;69.81;100286.97;5005397;28;20210;-70
2021/12/25 03:20:21;;;;;;;0.77;0.30;;;;;;;-2.78;69.54;100272.22;5002444;28;20599;-69
2021/12/25 03:22:48;;;;;;;1.27;0.30;;;;;;;-2.78;69.93;100274.81;5012377;28;20213;-70
2021/12/25 03:25:16;;;;;;;0.83;0.20;;;;;;;-2.80;70.08;100273.09;5002772;28;20699;-69
2021/12/25 03:27:45;;;;;;;0.60;0.20;;;;;;;-2.80;69.94;100272.22;5002061;28;20245;-70
2021/12/25 03:30:15;;;;;;;2.63;0.40;;;;;;;-2.83;70.10;100278.34;5005024;28;20325;-69
2021/12/25 03:32:43;;;;;;;1.80;0.30;;;;;;;-2.85;70.13;100281.84;5001356;28;20203;-70
2021/12/25 03:35:10;;;;;;;1.00;0.23;;;;;;;-2.86;69.92;100294.03;5006031;28;20209;-69
2021/12/25 03:37:36;;;;;;;3.63;0.30;;;;;;;-2.87;70.17;100289.72;5012317;28;20203;-70
2021/12/25 03:40:04;;;;;;;0.23;0.20;;;;;;;-2.87;70.43;100294.06;5011180;28;20235;-70
2021/12/25 03:42:31;;;;;;;0.23;0.10;;;;;;;-2.88;69.72;100303.63;5013628;28;20230;-70
2021/12/25 03:44:57;;;;;;;0.50;0.20;;;;;;;-2.89;70.01;100309.72;5011249;28;20217;-71
2021/12/25 03:47:29;;;;;;;0.50;0.10;;;;;;;-2.90;70.37;100308.00;5013007;28;20234;-70
2021/12/25 03:53:11;;;;;;;0.67;0.20;;;;;;;-2.91;69.91;100308.03;4965601;28;20294;-70
2021/12/25 03:58:27;;;;;;;0.37;0.27;;;;;;;-2.94;70.33;100323.69;5001135;28;20367;-70
2021/12/25 04:00:59;;;;;;;0.40;0.13;;;;;;;-2.96;70.33;100310.69;5013074;28;20235;-70
2021/12/25 04:03:40;;;;;;;3.47;0.33;;;;;;;-2.98;69.85;100309.84;5000643;28;20298;-70
2021/12/25 04:06:09;;;;;;;1.43;0.73;;;;;;;-2.99;70.29;100308.13;5007273;28;20237;-70
2021/12/25 04:08:41;;;;;;;1.13;0.20;;;;;;;-2.99;70.25;100302.03;5000795;28;20711;-70
2021/12/25 04:11:12;;;;;;;0.20;0.10;;;;;;;-3.02;70.43;100300.34;4996691;28;20282;-70
2021/12/25 04:13:39;;;;;;;3.40;0.37;;;;;;;-3.00;70.32;100321.16;5010415;28;20198;-69
2021/12/25 04:16:06;;;;;;;1.00;0.20;;;;;;;-3.01;70.64;100320.28;5012785;28;20214;-70
2021/12/25 04:18:34;;;;;;;0.30;0.20;;;;;;;-3.02;70.68;100321.19;5003096;28;20212;-70
2021/12/25 04:21:00;;;;;;;0.10;0.10;;;;;;;-3.03;70.34;100319.44;5006276;28;20231;-70
2021/12/25 04:23:28;;;;;;;0.87;0.30;;;;;;;-3.04;70.35;100333.34;5007416;28;20261;-70
2021/12/25 04:25:57;;;;;;;0.90;0.30;;;;;;;-3.05;70.65;100323.00;5000160;28;20274;-70
2021/12/25 04:28:34;;;;;;;1.60;0.20;;;;;;;-3.07;70.09;100327.34;5012894;28;20211;-70
2021/12/25 04:31:20;;;;;;;0.33;0.20;;;;;;;-3.10;70.54;100323.03;5011736;28;20341;-70
2021/12/25 05:01:38;;;;;;;0.97;0.30;;;;;;;-3.36;69.95;100331.16;5003235;28;20273;-71
2021/12/25 05:04:06;;;;;;;3.77;0.30;;;;;;;-3.52;70.16;100333.09;4994282;28;20202;-70
2021/12/25 05:06:34;;;;;;;0.97;0.37;;;;;;;-3.54;69.89;100331.38;5011918;28;20234;-71
2021/12/25 05:09:00;;;;;;;1.47;0.40;;;;;;;-3.55;70.01;100332.25;5011800;28;20300;-70
2021/12/25 05:11:27;;;;;;;0.10;0.10;;;;;;;-3.57;69.96;100337.47;5011044;28;20227;-71
2021/12/25 05:13:53;;;;;;;0.30;0.20;;;;;;;-3.58;70.16;100342.69;5011479;28;20207;-71
2021/12/25 05:16:21;;;;;;;2.27;0.40;;;;;;;-3.61;70.40;100343.63;5008925;28;20215;-70
2021/12/25 05:18:49;;;;;;;0.63;0.30;;;;;;;-3.63;70.26;100349.72;4999854;28;20222;-70
2021/12/25 05:21:16;;;;;;;0.97;0.40;;;;;;;-3.64;70.30;100353.19;5011437;28;20261;-70
2021/12/25 05:23:43;;;;;;;2.77;0.30;;;;;;;-3.65;70.30;100344.53;4999506;28;20677;-71
2021/12/25 05:26:10;;;;;;;1.53;0.40;;;;;;;-3.68;70.59;100344.53;5011699;28;20564;-70
2021/12/25 05:28:41;;;;;;;1.03;0.43;;;;;;;-3.69;70.44;100339.34;5009191;28;20207;-71
2021/12/25 05:31:08;;;;;;;0.63;0.30;;;;;;;-3.72;70.88;100349.78;5005348;28;20239;-71
2021/12/25 05:33:34;;;;;;;0.60;0.30;;;;;;;-3.75;70.88;100345.47;5011359;28;20214;-70
2021/12/25 05:36:01;;;;;;;1.30;0.37;;;;;;;-3.77;70.79;100352.47;5011287;28;20215;-71
2021/12/25 05:38:28;;;;;;;1.43;0.30;;;;;;;-3.79;70.87;100356.81;5010915;28;20202;-71
2021/12/25 05:40:56;;;;;;;0.67;0.30;;;;;;;-3.81;71.15;100349.91;5010352;28;20241;-71
2021/12/25 05:43:22;;;;;;;0.40;0.20;;;;;;;-3.83;71.00;100352.50;5004523;28;20211;-71
2021/12/25 05:45:49;;;;;;;3.10;0.40;;;;;;;-3.84;71.25;100363.78;5001518;28;20229;-70
2021/12/25 05:48:16;;;;;;;0.37;0.20;;;;;;;-3.85;71.40;100369.88;5010629;28;20235;-71
2021/12/25 05:50:43;;;;;;;2.97;0.23;;;;;;;-3.86;71.54;100370.75;5003032;28;20601;-71
2021/12/25 05:53:09;;;;;;;1.50;0.37;;;;;;;-3.87;71.71;100376.81;5002285;28;20214;-70
2021/12/25 05:55:36;;;;;;;0.57;0.30;;;;;;;-3.90;71.96;100377.72;5010519;28;20238;-70
2021/12/25 05:58:07;;;;;;;0.77;0.50;;;;;;;-3.92;71.85;100381.19;5010526;28;20206;-71
2021/12/25 06:00:34;;;;;;;0.93;0.40;;;;;;;-3.96;71.87;100372.59;5005594;28;20273;-71
2021/12/25 06:03:00;;;;;;;1.03;0.30;;;;;;;-3.98;71.99;100384.75;5008269;28;20589;-71
2021/12/25 06:05:27;;;;;;;2.03;0.40;;;;;;;-3.97;71.98;100380.41;5010676;28;20211;-70
2021/12/25 06:07:54;;;;;;;0.57;0.30;;;;;;;-3.99;72.20;100372.59;5003862;28;20250;-70
2021/12/25 06:10:21;;;;;;;0.67;0.40;;;;;;;-3.99;72.44;100374.34;5008204;28;20235;-71
2021/12/25 06:12:48;;;;;;;1.47;0.30;;;;;;;-4.01;72.45;100376.09;5008746;28;20222;-71
2021/12/25 06:15:19;;;;;;;0.83;0.40;;;;;;;-4.03;72.33;100383.03;5006587;28;20249;-70
2021/12/25 06:17:46;;;;;;;1.23;0.40;;;;;;;-4.06;72.47;100381.31;5008092;28;20322;-70
2021/12/25 06:20:13;;;;;;;1.73;0.40;;;;;;;-4.07;72.41;100383.94;5007905;28;20274;-70
2021/12/25 06:22:40;;;;;;;1.10;0.50;;;;;;;-4.09;72.55;100388.28;5010360;28;20225;-71
2021/12/25 06:25:08;;;;;;;0.50;0.40;;;;;;;-4.10;72.57;100395.22;5011015;28;20215;-71
2021/12/25 06:27:35;;;;;;;1.03;0.50;;;;;;;-4.12;72.76;100398.75;5010403;28;20230;-71
2021/12/25 06:30:02;;;;;;;0.83;0.40;;;;;;;-4.14;72.97;100390.09;5004714;28;20246;-71
2021/12/25 06:32:29;;;;;;;0.80;0.23;;;;;;;-4.17;72.71;100397.91;5004337;28;20214;-71
2021/12/25 06:34:56;;;;;;;1.27;0.40;;;;;;;-4.18;73.04;100401.38;5006469;28;20214;-71
2021/12/25 06:37:24;;;;;;;1.60;0.50;;;;;;;-4.22;72.84;100406.59;5010566;28;20211;-70
2021/12/25 06:39:50;;;;;;;1.07;0.47;;;;;;;-4.22;72.75;100410.94;5006521;28;21473;-71
2021/12/25 06:42:17;;;;;;;2.43;0.30;;;;;;;-4.23;72.99;100407.47;5009350;28;20214;-71
2021/12/25 06:44:44;;;;;;;1.10;0.60;;;;;;;-4.23;72.95;100415.28;5010137;28;20203;-71
2021/12/25 06:47:11;;;;;;;1.67;0.47;;;;;;;-4.27;72.90;100410.97;5008066;28;20235;-71
2021/12/25 06:49:38;;;;;;;1.00;0.30;;;;;;;-4.26;73.08;100419.63;5009500;28;20211;-70
2021/12/25 06:52:05;;;;;;;1.47;0.40;;;;;;;-4.29;73.11;100420.50;5009033;28;20207;-70
2021/12/25 06:54:32;;;;;;;2.40;0.50;;;;;;;-4.30;73.03;100407.53;4996481;28;20218;-71
2021/12/25 06:56:58;;;;;;;1.67;0.50;;;;;;;-4.32;73.34;100415.34;5006310;28;20210;-71
2021/12/25 06:59:25;;;;;;;2.57;0.53;;;;;;;-4.34;73.15;100426.63;5010780;28;20583;-71
2021/12/25 07:01:52;;;;;;;1.60;0.40;;;;;;;-4.35;73.21;100424.91;5009007;28;20668;-71
2021/12/25 07:04:18;;;;;;;2.83;0.67;;;;;;;-4.36;73.37;100431.84;5009770;28;20215;-70
2021/12/25 07:06:47;;;;;;;1.70;0.40;;;;;;;-4.39;73.20;100439.66;5010176;28;20314;-70
2021/12/25 07:09:13;;;;;;;1.63;0.40;;;;;;;-4.43;73.43;100430.13;5009870;28;20209;-70
2021/12/25 07:11:42;;;;;;;1.93;0.53;;;;;;;-4.43;73.32;100437.94;5009665;28;20234;-71
2021/12/25 07:14:11;;;;;;;3.37;0.50;;;;;;;-4.44;73.37;100444.00;5009243;28;20213;-70
2021/12/25 07:16:37;;;;;;;1.67;0.73;;;;;;;-4.44;73.58;100441.41;5007567;28;20257;-71
2021/12/25 07:19:04;;;;;;;0.53;0.33;;;;;;;-4.46;73.23;100453.53;4998818;28;20223;-71
2021/12/25 07:21:30;;;;;;;1.23;0.50;;;;;;;-4.47;73.48;100453.53;5006822;28;20238;-70
2021/12/25 07:23:58;;;;;;;1.23;0.47;;;;;;;-4.48;73.62;100447.50;5010916;28;20285;-70
2021/12/25 07:26:27;;;;;;;1.83;0.70;;;;;;;-4.49;73.47;100453.59;5007089;28;20206;-70
2021/12/25 07:28:54;;;;;;;1.63;0.73;;;;;;;-4.51;73.52;100457.91;4992192;28;20736;-70
2021/12/25 07:31:21;;;;;;;2.10;0.80;;;;;;;-4.54;73.52;100452.72;5054850;22;20232;-72
2021/12/25 07:33:47;;;;;;;1.07;0.60;;;;;;;-4.56;73.65;100460.53;5075622;28;20224;-73
2021/12/25 07:36:14;;;;;;;1.77;0.90;;;;;;;-4.56;73.57;100459.66;5067830;28;20589;-74
2021/12/25 07:38:42;;;;;;;0.70;0.50;;;;;;;-4.56;73.67;100457.06;5062525;28;20213;-73
2021/12/25 07:41:10;;;;;;;1.57;0.70;;;;;;;-4.58;73.64;100464.88;5065842;28;20222;-72
2021/12/25 07:43:36;;;;;;;4.63;0.70;;;;;;;-4.59;73.77;100464.88;5036009;28;20216;-71
2021/12/25 07:46:03;;;;;;;3.80;0.70;;;;;;;-4.62;73.72;100468.34;5048730;28;20205;-72
2021/12/25 07:48:32;;;;;;;2.63;0.63;;;;;;;-4.61;73.62;100464.03;5044901;28;20237;-73
2021/12/25 07:50:58;;;;;;;1.13;0.90;;;;;;;-4.61;73.59;100469.22;5050603;28;20229;-74
2021/12/25 07:53:25;;;;;;;2.07;0.90;;;;;;;-4.64;73.66;100477.03;5042428;28;20586;-71
2021/12/25 07:55:51;;;;;;;1.63;0.97;;;;;;;-4.64;73.70;100474.41;5054458;28;20205;-72
2021/12/25 07:58:20;;;;;;;2.67;0.67;;;;;;;-4.65;73.46;100483.09;5060952;28;20295;-71
2021/12/25 08:00:47;;;;;;;1.97;0.57;;;;;;;-4.66;73.72;100478.78;5066620;28;20263;-73
2021/12/25 08:03:15;;;;;;;1.00;0.50;;;;;;;-4.67;73.81;100490.06;5066308;28;20571;-73
2021/12/25 08:05:42;;;;;;;2.17;0.50;;;;;;;-4.67;73.56;100492.66;5050542;28;20654;-73
2021/12/25 08:08:11;;;;;;;3.47;0.70;;;;;;;-4.68;73.84;100496.13;5062795;28;20710;-73
2021/12/25 08:10:38;;;;;;;1.73;1.20;;;;;;;-4.67;73.74;100492.66;5056482;28;20237;-73
2021/12/25 08:13:05;;;;;;;1.97;0.80;;;;;;;-4.68;73.69;100498.72;5071735;28;20221;-73
2021/12/25 08:15:33;;;;;;;1.77;0.73;;;;;;;-4.68;73.84;100491.78;5055417;28;20208;-73
2021/12/25 08:18:01;;;;;;;2.60;0.73;;;;;;;-4.67;73.92;100497.84;5036894;28;20213;-73
2021/12/25 08:20:28;;;;;;;3.90;1.10;;;;;;;-4.67;73.91;100501.31;5040068;28;20222;-72
2021/12/25 08:22:55;;;;;;;2.97;1.30;;;;;;;-4.64;73.94;100503.00;5043138;28;20209;-73
2021/12/25 08:25:23;;;;;;;1.63;1.17;;;;;;;-4.64;73.98;100495.22;5046381;28;20946;-73
2021/12/25 08:27:50;;;;;;;2.10;1.13;;;;;;;-4.63;73.80;100502.13;5045857;28;20728;-73
2021/12/25 08:30:20;;;;;;;3.87;1.60;;;;;;;-4.64;73.70;100501.28;5051506;28;20209;-73
2021/12/25 08:32:50;;;;;;;4.53;1.60;;;;;;;-4.61;73.43;100498.66;5053308;28;20515;-73
2021/12/25 08:35:18;;;;;;;2.63;1.27;;;;;;;-4.60;73.44;100507.31;5048147;28;20216;-73
2021/12/25 08:37:46;;;;;;;3.07;1.40;;;;;;;-4.58;73.48;100508.19;5053071;28;20241;-73
2021/12/25 08:40:14;;;;;;;4.13;2.00;;;;;;;-4.56;73.39;100503.84;5045181;28;20213;-73
2021/12/25 08:42:46;;;;;;;2.93;1.47;;;;;;;-4.60;73.01;100507.31;5053538;28;20211;-73
2021/12/25 08:45:30;;;;;;;2.13;1.17;;;;;;;-4.59;72.93;100509.06;5072267;28;20219;-73
2021/12/25 08:47:58;;;;;;;2.90;1.10;;;;;;;-4.58;72.85;100515.97;5045338;28;20231;-73
2021/12/25 08:50:25;;;;;;;2.77;0.87;;;;;;;-4.56;72.42;100507.31;5046425;28;20226;-73
2021/12/25 08:52:52;;;;;;;0.67;0.50;;;;;;;-4.58;72.37;100515.97;5047920;28;20201;-73
2021/12/25 08:55:19;;;;;;;0.73;0.50;;;;;;;-4.60;72.14;100515.13;5048676;28;20201;-73
2021/12/25 08:57:45;;;;;;;1.90;1.00;;;;;;;-4.60;71.86;100521.19;5055789;28;20201;-73
2021/12/25 09:00:13;;;;;;;1.30;0.80;;;;;;;-4.56;71.98;100525.50;5059999;28;20233;-73
2021/12/25 09:02:39;;;;;;;0.70;0.50;;;;;;;-4.52;71.64;100525.50;5051365;28;20587;-73
2021/12/25 09:05:07;;;;;;;0.90;0.50;;;;;;;-4.52;71.49;100531.56;5060378;28;20220;-73
2021/12/25 09:07:34;;;;;;;1.80;0.47;;;;;;;-4.50;71.44;100528.97;5045090;28;20338;-74
2021/12/25 09:10:00;;;;;;;1.63;0.40;;;;;;;-4.48;71.33;100537.63;5054073;28;20671;-73
2021/12/25 09:12:28;;;;;;;0.23;0.23;;;;;;;-4.44;71.07;100537.56;5059023;28;20213;-73
2021/12/25 09:14:55;;;;;;;1.00;0.20;;;;;;;-4.45;71.01;100538.44;5056860;28;20646;-73
2021/12/25 09:17:21;;;;;;;0.67;0.33;;;;;;;-4.48;71.04;100535.03;5047777;28;20213;-74
2021/12/25 09:19:48;;;;;;;5.10;0.50;;;;;;;-4.45;70.59;100548.84;5048608;28;20374;-73
2021/12/25 09:22:16;;;;;;;1.13;0.60;;;;;;;-4.42;70.66;100547.97;5068122;28;20259;-73
2021/12/25 09:24:42;;;;;;;1.43;0.30;;;;;;;-4.40;70.47;100554.88;5042007;28;20216;-73
2021/12/25 09:27:09;;;;;;;1.23;0.23;;;;;;;-4.40;70.24;100559.22;5032945;28;20202;-73
2021/12/25 09:29:36;;;;;;;1.70;1.60;;;;;;;-4.40;70.53;100557.50;5036769;28;20659;-73
2021/12/25 09:32:04;;;;;;;0.70;0.30;;;;;;;-4.38;70.09;100565.28;5036489;28;20233;-73
2021/12/25 09:34:30;;;;;;;3.20;0.50;;;;;;;-4.35;70.10;100554.88;5037775;28;20203;-73
2021/12/25 09:36:57;;;;;;;0.77;0.33;;;;;;;-4.33;70.09;100559.22;5045435;28;20583;-73
2021/12/25 09:39:25;;;;;;;1.90;0.37;;;;;;;-4.31;70.20;100557.47;5045194;28;20201;-74
2021/12/25 09:41:51;;;;;;;1.00;0.60;;;;;;;-4.31;70.12;100552.28;5031427;28;20226;-72
2021/12/25 09:44:18;;;;;;;1.17;0.30;;;;;;;-4.30;70.13;100563.53;5034225;28;20203;-72
2021/12/25 09:46:45;;;;;;;0.83;0.37;;;;;;;-4.33;69.75;100554.00;5035908;28;20198;-73
2021/12/25 09:49:11;;;;;;;2.23;0.90;;;;;;;-4.33;69.80;100564.41;5052078;28;20221;-73
2021/12/25 09:51:38;;;;;;;0.20;0.20;;;;;;;-4.33;69.69;100559.22;5053626;28;20224;-73
2021/12/25 09:54:07;;;;;;;0.60;0.30;;;;;;;-4.33;69.53;100559.22;5045280;28;20209;-73
2021/12/25 09:56:37;;;;;;;3.87;0.30;;;;;;;-4.33;69.43;100559.22;5040327;28;20201;-73
2021/12/25 09:59:04;;;;;;;0.87;0.40;;;;;;;-4.32;69.36;100563.53;5045072;28;20217;-73
2021/12/25 10:01:36;;;;;;;0.30;0.30;;;;;;;-4.33;69.46;100559.22;5035263;28;20232;-72
2021/12/25 10:04:03;;;;;;;1.70;0.50;;;;;;;-4.33;69.44;100556.59;5040230;28;20201;-73
2021/12/25 10:06:31;;;;;;;1.53;0.60;;;;;;;-4.31;69.38;100562.66;5039674;28;20209;-73
2021/12/25 10:08:58;;;;;;;0.37;0.30;;;;;;;-4.29;69.59;100560.03;5035423;28;20698;-73
2021/12/25 10:11:26;;;;;;;1.27;0.60;;;;;;;-4.28;69.57;100564.34;5035272;28;20230;-73
2021/12/25 10:13:56;;;;;;;0.93;0.53;;;;;;;-4.29;69.39;100560.91;5032087;28;20285;-73
2021/12/25 10:16:25;;;;;;;2.33;0.70;;;;;;;-4.31;69.40;100565.25;5033508;28;20605;-73
2021/12/25 10:18:54;;;;;;;1.17;0.70;;;;;;;-4.28;69.50;100567.81;5034352;28;20205;-72
2021/12/25 10:21:23;;;;;;;1.83;1.10;;;;;;;-4.24;69.58;100569.53;5040916;28;20229;-73
2021/12/25 10:24:06;;;;;;;5.23;1.23;;;;;;;-4.21;69.67;100574.75;5042874;28;20213;-73
2021/12/25 10:26:33;;;;;;;2.03;1.33;;;;;;;-4.18;69.45;100573.88;5039680;28;20209;-73
2021/12/25 10:29:16;;;;;;;1.93;1.10;;;;;;;-4.14;69.62;100580.78;5039599;28;20221;-72
2021/12/25 10:31:42;;;;;;;3.10;1.30;;;;;;;-4.10;69.49;100573.81;5035669;28;20232;-73
2021/12/25 10:34:14;;;;;;;3.17;1.00;;;;;;;-4.08;69.70;100574.66;5041308;28;20679;-72
2021/12/25 10:36:42;;;;;;;1.13;0.83;;;;;;;-4.06;70.01;100562.53;5037258;28;20225;-73
2021/12/25 10:39:12;;;;;;;3.03;0.80;;;;;;;-4.04;69.82;100560.78;5040628;28;20288;-72
2021/12/25 10:41:41;;;;;;;1.60;0.73;;;;;;;-4.04;69.76;100561.66;5040049;28;20391;-72
2021/12/25 10:44:15;;;;;;;1.73;0.90;;;;;;;-4.02;69.89;100553.84;5041934;28;20220;-71
2021/12/25 10:46:51;;;;;;;2.63;0.90;;;;;;;-3.99;70.01;100566.84;5044414;28;20210;-72
2021/12/25 10:49:18;;;;;;;2.00;0.97;;;;;;;-3.97;69.74;100567.69;5045374;28;20225;-72
2021/12/25 10:51:45;;;;;;;1.80;0.70;;;;;;;-3.93;69.73;100569.38;5045233;28;20233;-72
2021/12/25 10:54:14;;;;;;;1.77;1.00;;;;;;;-3.93;69.76;100569.38;5044903;28;20206;-72
2021/12/25 10:56:42;;;;;;;2.53;1.00;;;;;;;-3.93;69.96;100552.03;5049385;28;20197;-72
2021/12/25 10:59:12;;;;;;;2.53;1.00;;;;;;;-3.92;69.99;100555.50;5042638;28;20197;-72
2021/12/25 11:01:42;;;;;;;2.27;1.10;;;;;;;-3.90;69.90;100549.41;5039357;28;20220;-72
2021/12/25 11:04:30;;;;;;;1.43;0.90;;;;;;;-3.88;69.78;100557.22;5035269;28;20209;-73
2021/12/25 11:06:58;;;;;;;2.13;0.97;;;;;;;-3.85;69.61;100554.59;5040862;28;20210;-72
2021/12/25 11:09:26;;;;;;;1.63;0.70;;;;;;;-3.85;69.77;100559.81;5045300;28;20222;-73
2021/12/25 11:12:20;;;;;;;3.37;1.20;;;;;;;-3.85;69.68;100558.06;5038804;28;20291;-73
2021/12/25 11:14:48;;;;;;;1.67;0.87;;;;;;;-3.82;69.77;100559.78;5031044;28;20213;-72
2021/12/25 11:17:24;;;;;;;0.97;0.77;;;;;;;-3.83;69.42;100560.66;5039344;28;20235;-73
2021/12/25 11:19:58;;;;;;;2.83;0.83;;;;;;;-3.82;69.39;100549.38;5046765;28;20219;-72
2021/12/25 11:22:26;;;;;;;1.57;1.00;;;;;;;-3.80;69.75;100539.84;5047918;28;20248;-73
2021/12/25 11:24:54;;;;;;;1.63;0.97;;;;;;;-3.79;69.59;100546.75;5040490;28;20227;-73
2021/12/25 11:27:22;;;;;;;2.10;0.83;;;;;;;-3.77;69.39;100549.34;5052775;28;20213;-73
2021/12/25 11:29:50;;;;;;;2.63;1.10;;;;;;;-3.75;69.68;100558.00;5061466;28;20232;-72
2021/12/25 11:32:21;;;;;;;3.63;0.80;;;;;;;-3.70;69.61;100556.22;5048961;28;20711;-72
2021/12/25 11:34:50;;;;;;;4.10;1.10;;;;;;;-3.67;69.87;100545.81;5048370;28;20256;-73
2021/12/25 11:37:19;;;;;;;0.83;0.60;;;;;;;-3.66;69.65;100537.13;5046730;28;20204;-73
2021/12/25 11:39:52;;;;;;;1.80;0.73;;;;;;;-3.68;69.75;100550.16;5045712;28;20685;-72
2021/12/25 11:42:19;;;;;;;0.63;0.50;;;;;;;-3.65;69.81;100544.91;5054403;28;20271;-73
2021/12/25 11:44:51;;;;;;;0.70;0.37;;;;;;;-3.60;69.58;100537.94;5051730;28;20210;-72
2021/12/25 11:47:36;;;;;;;1.20;0.60;;;;;;;-3.59;69.18;100544.03;5061595;28;20220;-73
2021/12/25 11:50:07;;;;;;;1.07;0.50;;;;;;;-3.64;69.21;100551.00;5044963;28;20233;-72
2021/12/25 11:52:39;;;;;;;1.50;0.53;;;;;;;-3.65;69.11;100547.53;5055644;28;20291;-73
2021/12/25 11:55:32;;;;;;;1.67;0.50;;;;;;;-3.65;69.07;100555.34;5047676;28;20852;-72
2021/12/25 11:58:06;;;;;;;1.33;0.50;;;;;;;-3.64;68.55;100548.38;5055076;28;20201;-73
2021/12/25 12:00:38;;;;;;;0.97;0.37;;;;;;;-3.63;68.86;100553.59;5063267;28;20217;-72
2021/12/25 12:03:06;;;;;;;0.87;0.43;;;;;;;-3.62;68.83;100549.25;5054438;28;20692;-74
2021/12/25 12:05:37;;;;;;;3.23;0.50;;;;;;;-3.61;68.67;100557.03;5055902;28;20232;-73
2021/12/25 12:08:08;;;;;;;3.00;0.47;;;;;;;-3.60;68.36;100553.56;5055598;28;20210;-73
2021/12/25 12:10:50;;;;;;;0.97;0.40;;;;;;;-3.62;68.28;100547.50;5061917;28;20248;-73
2021/12/25 12:13:21;;;;;;;0.97;0.57;;;;;;;-3.63;68.29;100548.38;5050590;28;20209;-72
2021/12/25 12:15:49;;;;;;;0.77;0.53;;;;;;;-3.61;68.15;100543.16;5051154;28;20220;-73
2021/12/25 12:18:36;;;;;;;2.67;0.60;;;;;;;-3.61;68.52;100546.63;5034770;28;20675;-73